Time;durP1;ratioP1;P1;durP2;ratioP2;P2;SDS_P1;SDS_P2;PMS_P1;PMS_P2;Temp;Humidity;BMP_temperature;BMP_pressure;BME280_temperature;BME280_humidity;BME280_pressure;Samples;Min_cycle;Max_cycle;Signal;HPM_P1;HPM_P2
2023/04/26 00:00:21;;;;;;;9.70;1.63;;;;;;;3.67;67.82;100861.41;7400356;19;20018;-69
2023/04/26 00:02:50;;;;;;;5.55;1.85;;;;;;;3.66;68.08;100863.09;7399868;19;20018;-69
2023/04/26 00:05:21;;;;;;;9.98;1.75;;;;;;;3.62;68.32;100866.53;7400238;19;20014;-69
2023/04/26 00:07:57;;;;;;;5.00;2.15;;;;;;;3.60;68.44;100868.25;7397690;19;20361;-69
2023/04/26 00:10:25;;;;;;;6.10;1.70;;;;;;;3.57;68.55;100866.50;7400423;19;20015;-69
2023/04/26 00:12:54;;;;;;;4.55;1.20;;;;;;;3.55;68.38;100867.34;7396980;19;20485;-69
2023/04/26 00:15:22;;;;;;;6.57;1.70;;;;;;;3.53;68.62;100866.47;7399850;19;20074;-69
2023/04/26 00:17:50;;;;;;;4.30;1.65;;;;;;;3.51;68.65;100866.44;7399806;19;20018;-69
2023/04/26 00:20:21;;;;;;;8.40;1.77;;;;;;;3.49;68.63;100864.69;7399327;19;20015;-69
2023/04/26 00:22:50;;;;;;;7.45;1.70;;;;;;;3.47;68.90;100863.81;7399519;19;20086;-69
2023/04/26 00:25:18;;;;;;;7.32;1.60;;;;;;;3.43;68.93;100870.69;7399788;19;20086;-69
2023/04/26 00:27:47;;;;;;;6.25;1.70;;;;;;;3.42;69.62;100861.16;7397276;19;20025;-69
2023/04/26 00:30:16;;;;;;;8.77;2.03;;;;;;;3.40;69.28;100868.94;7399410;19;20018;-69
2023/04/26 00:32:45;;;;;;;7.80;1.70;;;;;;;3.38;69.35;100864.59;7398543;19;20019;-69
2023/04/26 00:35:14;;;;;;;6.43;1.70;;;;;;;3.35;69.14;100869.72;7398816;19;20010;-69
2023/04/26 00:37:45;;;;;;;7.88;1.88;;;;;;;3.35;69.36;100870.63;7398021;19;20018;-69
2023/04/26 00:40:15;;;;;;;8.07;1.70;;;;;;;3.34;69.70;100873.22;7398738;19;20010;-69
2023/04/26 00:42:44;;;;;;;3.95;1.30;;;;;;;3.31;69.87;100876.63;7398208;19;20022;-70
2023/04/26 00:45:13;;;;;;;8.18;1.52;;;;;;;3.29;70.49;100872.28;7398878;19;20060;-69
2023/04/26 00:47:42;;;;;;;4.68;1.45;;;;;;;3.28;70.21;100866.22;7398849;19;20010;-69
2023/04/26 00:50:11;;;;;;;7.13;1.55;;;;;;;3.26;70.39;100874.00;7398754;19;20086;-69
2023/04/26 00:52:40;;;;;;;5.43;1.30;;;;;;;3.25;70.70;100880.03;7398069;19;20014;-69
2023/04/26 00:55:25;;;;;;;7.43;1.50;;;;;;;3.24;71.17;100880.00;7396739;19;20021;-69
2023/04/26 00:57:54;;;;;;;9.48;2.00;;;;;;;3.23;70.70;100893.81;7398908;19;20014;-69
2023/04/26 01:00:23;;;;;;;6.65;1.55;;;;;;;3.22;70.36;100885.19;7398046;19;20537;-69
2023/04/26 01:02:51;;;;;;;8.15;1.90;;;;;;;3.18;71.31;100882.53;7397429;19;20366;-69
2023/04/26 01:05:20;;;;;;;7.53;2.05;;;;;;;3.21;71.05;100887.75;7396270;19;20054;-69
2023/04/26 01:07:49;;;;;;;6.00;1.80;;;;;;;3.18;71.05;100880.81;7397776;19;20078;-69
2023/04/26 01:10:20;;;;;;;5.97;1.70;;;;;;;3.18;70.84;100883.41;7397706;19;20073;-69
2023/04/26 01:12:49;;;;;;;10.40;2.10;;;;;;;3.17;70.71;100888.56;7397857;19;20041;-66
2023/04/26 01:15:18;;;;;;;5.13;1.50;;;;;;;3.16;71.46;100887.72;7397841;19;20021;-67
2023/04/26 01:17:48;;;;;;;7.85;2.10;;;;;;;3.15;70.86;100890.28;7395558;19;20015;-67
2023/04/26 01:20:16;;;;;;;8.85;2.35;;;;;;;3.12;71.27;100898.88;7397404;19;20482;-67
2023/04/26 01:22:48;;;;;;;7.30;1.55;;;;;;;3.10;71.36;100898.88;7397268;19;20074;-67
2023/04/26 01:25:18;;;;;;;7.78;1.50;;;;;;;3.08;71.44;100892.81;7397196;19;20010;-67
2023/04/26 01:27:46;;;;;;;3.88;1.30;;;;;;;3.07;72.24;100896.25;7397456;19;20025;-67
2023/04/26 01:30:15;;;;;;;6.13;1.38;;;;;;;3.05;72.49;100895.34;7397399;19;20014;-67
2023/04/26 01:32:44;;;;;;;7.68;1.55;;;;;;;3.04;72.05;100900.53;7395351;19;20472;-67
2023/04/26 01:35:12;;;;;;;10.00;3.05;;;;;;;3.02;71.58;100903.13;7397208;19;20078;-67
2023/04/26 01:37:40;;;;;;;9.10;1.85;;;;;;;3.00;72.20;100902.22;7397117;19;20011;-67
2023/04/26 01:40:12;;;;;;;12.07;2.05;;;;;;;2.99;72.40;100902.19;7397124;19;20025;-67
2023/04/26 01:42:41;;;;;;;8.15;1.83;;;;;;;2.98;71.88;100906.50;7396987;19;20015;-67
2023/04/26 01:45:10;;;;;;;12.90;1.75;;;;;;;2.98;72.01;100903.91;7396565;19;20010;-67
2023/04/26 01:47:39;;;;;;;9.63;1.88;;;;;;;2.97;72.35;100906.47;7395253;19;20014;-67
2023/04/26 01:50:09;;;;;;;8.60;1.85;;;;;;;2.96;72.05;100904.75;7396135;19;20361;-67
2023/04/26 01:52:38;;;;;;;9.75;1.92;;;;;;;2.93;72.83;100900.38;7394898;19;20101;-67
2023/04/26 01:55:07;;;;;;;10.45;1.70;;;;;;;2.91;72.62;100900.38;7394502;19;20014;-67
2023/04/26 01:57:38;;;;;;;5.30;2.03;;;;;;;2.89;72.75;100903.81;7396540;19;20014;-67
2023/04/26 02:00:09;;;;;;;10.40;1.77;;;;;;;2.87;73.13;100893.44;7394409;19;20020;-67
2023/04/26 02:02:37;;;;;;;9.27;2.33;;;;;;;2.86;72.79;100899.44;7395739;19;20377;-67
2023/04/26 02:05:06;;;;;;;9.82;1.90;;;;;;;2.83;72.66;100899.44;7396238;19;20027;-67
2023/04/26 02:07:35;;;;;;;7.60;1.70;;;;;;;2.80;73.64;100903.69;7397375;19;20026;-68
2023/04/26 02:10:03;;;;;;;10.25;2.03;;;;;;;2.78;73.48;100903.69;7395768;19;20018;-67
2023/04/26 02:12:32;;;;;;;5.82;1.67;;;;;;;2.76;73.89;100900.19;7397008;19;20014;-68
2023/04/26 02:15:03;;;;;;;5.85;1.80;;;;;;;2.73;73.31;100895.84;7394493;19;20082;-67
2023/04/26 02:17:32;;;;;;;6.85;1.90;;;;;;;2.72;73.82;100896.69;7395521;19;20014;-67
2023/04/26 02:20:01;;;;;;;9.88;2.03;;;;;;;2.71;73.39;100907.03;7395776;19;20022;-67
2023/04/26 02:22:30;;;;;;;5.50;1.77;;;;;;;2.70;74.09;100900.97;7393626;19;20015;-67
2023/04/26 02:24:58;;;;;;;6.45;2.30;;;;;;;2.68;73.67;100899.22;7394032;19;20060;-67
2023/04/26 02:27:27;;;;;;;7.45;1.98;;;;;;;2.67;73.48;100907.84;7395189;19;20021;-67
2023/04/26 02:29:55;;;;;;;8.50;1.63;;;;;;;2.65;73.80;100905.22;7395553;19;20081;-67
2023/04/26 02:32:26;;;;;;;10.90;2.30;;;;;;;2.61;74.50;100906.03;7394876;19;20511;-67
2023/04/26 02:34:54;;;;;;;13.95;3.22;;;;;;;2.59;73.97;100902.53;7393120;19;20010;-67
2023/04/26 02:37:23;;;;;;;11.38;2.20;;;;;;;2.57;75.14;100905.13;7393601;19;20025;-67
2023/04/26 02:39:52;;;;;;;9.25;2.17;;;;;;;2.55;74.46;100905.94;7395030;19;20132;-67
2023/04/26 02:42:20;;;;;;;7.63;2.17;;;;;;;2.52;74.41;100905.91;7395229;19;20018;-67
2023/04/26 02:44:49;;;;;;;8.05;2.10;;;;;;;2.51;74.22;100907.63;7395127;19;20082;-67
2023/04/26 02:47:17;;;;;;;7.40;1.80;;;;;;;2.49;74.95;100904.16;7394689;19;20025;-67
2023/04/26 02:49:50;;;;;;;13.15;2.67;;;;;;;2.47;74.50;100899.81;7395409;19;20019;-67
2023/04/26 02:52:18;;;;;;;6.22;2.00;;;;;;;2.44;74.61;100898.91;7393614;19;20018;-67
2023/04/26 02:54:46;;;;;;;5.93;2.35;;;;;;;2.44;74.63;100895.47;7391995;19;20011;-67
2023/04/26 02:57:15;;;;;;;10.75;2.13;;;;;;;2.40;76.71;100906.59;7395269;19;20018;-67
2023/04/26 02:59:43;;;;;;;6.80;2.20;;;;;;;2.38;75.06;100904.00;7397357;19;20025;-67
2023/04/26 03:02:12;;;;;;;9.55;2.30;;;;;;;2.36;75.40;100910.00;7402237;19;20018;-67
2023/04/26 03:04:40;;;;;;;8.70;2.00;;;;;;;2.34;75.21;100909.97;7398804;19;20018;-67
2023/04/26 03:07:11;;;;;;;10.13;2.95;;;;;;;2.33;75.64;100909.97;7402019;19;20031;-67
2023/04/26 03:09:40;;;;;;;9.63;2.20;;;;;;;2.29;75.51;100909.06;7401602;19;20558;-67
2023/04/26 03:12:09;;;;;;;9.90;2.20;;;;;;;2.27;75.77;100911.63;7401614;19;20082;-67
2023/04/26 03:14:38;;;;;;;18.20;2.95;;;;;;;2.24;75.52;100911.56;7398239;19;20018;-67
2023/04/26 03:17:06;;;;;;;11.63;2.70;;;;;;;2.22;75.55;100907.22;7398725;19;20423;-66
2023/04/26 03:19:35;;;;;;;5.80;2.63;;;;;;;2.20;76.12;100909.78;7398833;19;20094;-66
2023/04/26 03:22:03;;;;;;;6.55;2.47;;;;;;;2.17;76.07;100914.91;7398789;19;20095;-67
2023/04/26 03:24:34;;;;;;;9.60;3.42;;;;;;;2.15;76.39;100910.53;7398829;19;20025;-67
2023/04/26 03:27:03;;;;;;;7.90;2.40;;;;;;;2.13;76.30;100917.44;7401871;19;20029;-67
2023/04/26 03:29:31;;;;;;;7.75;2.55;;;;;;;2.11;76.32;100914.78;7401306;19;20018;-67
2023/04/26 03:32:00;;;;;;;9.52;2.80;;;;;;;2.08;76.68;100920.78;7401290;19;20017;-67
2023/04/26 03:34:28;;;;;;;12.23;3.17;;;;;;;2.06;76.97;100917.34;7398111;19;20028;-67
2023/04/26 03:36:57;;;;;;;6.75;2.50;;;;;;;2.05;76.61;100914.72;7400961;19;20034;-67
2023/04/26 03:39:25;;;;;;;10.93;2.30;;;;;;;2.02;76.38;100918.13;7400246;19;20010;-67
2023/04/26 03:41:56;;;;;;;9.68;3.72;;;;;;;2.02;76.64;100917.25;7400852;19;20022;-67
2023/04/26 03:44:25;;;;;;;7.93;2.38;;;;;;;2.00;76.77;100913.75;7398609;19;20035;-67
2023/04/26 03:46:53;;;;;;;11.63;2.70;;;;;;;1.97;76.32;100917.16;7401092;19;20011;-67
2023/04/26 03:49:22;;;;;;;11.25;2.45;;;;;;;1.96;76.61;100920.63;7398213;19;20031;-67
2023/04/26 03:51:50;;;;;;;9.57;3.08;;;;;;;1.94;77.17;100917.13;7398477;19;20029;-66
2023/04/26 03:54:19;;;;;;;11.38;3.05;;;;;;;1.93;77.01;100924.03;7397776;19;20501;-67
2023/04/26 03:56:47;;;;;;;9.70;4.05;;;;;;;1.90;76.62;100920.50;7397574;19;20023;-67
2023/04/26 03:59:18;;;;;;;11.02;3.40;;;;;;;1.91;77.09;100928.28;7397595;19;20026;-67
2023/04/26 04:01:47;;;;;;;13.18;2.80;;;;;;;1.88;77.43;100927.38;7399742;19;20031;-67
2023/04/26 04:04:15;;;;;;;9.27;2.83;;;;;;;1.86;77.15;100929.03;7397739;19;20022;-66
2023/04/26 04:06:45;;;;;;;11.30;3.42;;;;;;;1.85;77.11;100930.78;7399985;19;20021;-68
2023/04/26 04:09:13;;;;;;;14.45;3.90;;;;;;;1.84;77.75;100943.69;7399610;19;20489;-68
2023/04/26 04:11:41;;;;;;;13.27;4.63;;;;;;;1.81;77.27;100939.34;7397611;19;20549;-67
2023/04/26 04:14:10;;;;;;;10.50;3.28;;;;;;;1.79;77.23;100941.91;7397707;19;20018;-66
2023/04/26 04:16:41;;;;;;;14.10;3.53;;;;;;;1.78;78.29;100942.75;7399256;19;20035;-67
2023/04/26 04:19:10;;;;;;;8.40;2.78;;;;;;;1.77;78.81;100940.13;7396652;19;20018;-67
2023/04/26 04:21:39;;;;;;;10.98;2.65;;;;;;;1.75;78.62;100947.84;7399539;19;20018;-67
2023/04/26 04:24:08;;;;;;;11.02;3.25;;;;;;;1.75;78.67;100940.09;7397232;19;20018;-67
2023/04/26 04:26:36;;;;;;;15.43;3.42;;;;;;;1.76;78.35;100940.97;7399270;19;20019;-67
2023/04/26 04:29:07;;;;;;;10.10;3.50;;;;;;;1.76;78.42;100944.41;7396737;19;20075;-67
2023/04/26 04:31:36;;;;;;;10.43;3.10;;;;;;;1.78;78.94;100947.03;7398563;19;20493;-67
2023/04/26 04:34:07;;;;;;;12.55;3.65;;;;;;;1.79;78.27;100951.38;7397120;19;20019;-67
2023/04/26 04:36:37;;;;;;;14.95;3.65;;;;;;;1.79;78.78;100952.25;7399392;19;20389;-67
2023/04/26 04:39:12;;;;;;;11.65;4.03;;;;;;;1.82;78.65;100953.13;7396525;19;20018;-67
2023/04/26 04:41:46;;;;;;;9.38;2.88;;;;;;;1.81;79.47;100946.22;7398406;19;20353;-67
2023/04/26 04:44:15;;;;;;;9.98;3.30;;;;;;;1.85;79.37;100961.81;7396141;19;20014;-67
2023/04/26 04:46:43;;;;;;;10.30;3.08;;;;;;;1.86;79.19;100961.00;7396210;19;20018;-67
2023/04/26 04:49:15;;;;;;;12.40;3.53;;;;;;;1.88;78.88;100959.28;7398633;19;20034;-66
2023/04/26 04:51:43;;;;;;;10.13;3.20;;;;;;;1.92;79.29;100961.09;7398223;19;20498;-67
2023/04/26 04:54:13;;;;;;;6.15;2.90;;;;;;;1.95;78.71;100963.72;7396288;19;20035;-67
2023/04/26 04:56:42;;;;;;;10.60;3.28;;;;;;;1.99;79.08;100961.22;7396766;19;20024;-67
2023/04/26 04:59:11;;;;;;;10.38;3.25;;;;;;;2.02;79.49;100977.66;7397623;19;20015;-67
2023/04/26 05:01:40;;;;;;;10.77;3.78;;;;;;;2.07;79.75;100977.72;7397324;19;20514;-67
2023/04/26 05:04:08;;;;;;;11.30;3.65;;;;;;;2.11;79.33;100972.63;7395886;19;20045;-67
2023/04/26 05:06:40;;;;;;;14.13;3.13;;;;;;;2.17;79.10;100968.41;7396214;19;20023;-66
2023/04/26 05:09:09;;;;;;;10.23;4.47;;;;;;;2.20;78.56;100984.84;7397080;19;20015;-67
2023/04/26 05:11:37;;;;;;;11.68;3.90;;;;;;;2.25;78.95;100974.56;7395518;19;20019;-67
2023/04/26 05:14:06;;;;;;;8.63;3.67;;;;;;;2.28;78.86;100970.28;7395197;19;20034;-67
2023/04/26 05:16:34;;;;;;;11.32;3.30;;;;;;;2.33;79.25;100978.16;7396663;19;20039;-67
2023/04/26 05:19:03;;;;;;;14.43;4.10;;;;;;;2.36;78.79;100985.09;7396954;19;20073;-68
2023/04/26 05:21:32;;;;;;;11.38;3.13;;;;;;;2.41;78.44;100979.16;7395898;19;20482;-67
2023/04/26 05:24:03;;;;;;;12.18;3.83;;;;;;;2.45;79.20;100982.63;7393610;19;20026;-68
2023/04/26 05:26:31;;;;;;;10.45;3.60;;;;;;;2.48;78.75;100987.88;7395018;19;20022;-67
2023/04/26 05:29:00;;;;;;;12.07;3.63;;;;;;;2.51;79.15;100987.91;7395896;19;20022;-69
2023/04/26 05:31:28;;;;;;;11.73;3.83;;;;;;;2.55;79.24;100996.59;7395923;19;20027;-68
2023/04/26 05:33:57;;;;;;;9.13;3.33;;;;;;;2.60;78.42;101000.13;7394664;19;20015;-68
2023/04/26 05:36:25;;;;;;;12.32;3.50;;;;;;;2.63;78.82;100992.44;7394581;19;20022;-67
2023/04/26 05:38:54;;;;;;;14.20;4.22;;;;;;;2.68;78.17;100995.97;7394724;19;20533;-67
2023/04/26 05:41:25;;;;;;;13.15;3.35;;;;;;;2.72;78.27;101002.91;7396597;19;20031;-67
2023/04/26 05:43:54;;;;;;;14.13;4.80;;;;;;;2.77;77.86;101001.25;7394712;19;20018;-65
2023/04/26 05:46:22;;;;;;;12.77;4.18;;;;;;;2.81;78.44;101002.19;7394798;19;20031;-66
2023/04/26 05:48:51;;;;;;;15.63;4.05;;;;;;;2.86;77.84;101005.72;7396919;19;20015;-67
2023/04/26 05:51:19;;;;;;;21.05;4.53;;;;;;;2.90;78.36;101011.81;7395833;19;20419;-67
2023/04/26 05:53:54;;;;;;;12.60;4.22;;;;;;;2.95;77.83;101017.94;7394435;19;20548;-66
2023/04/26 05:56:25;;;;;;;13.05;5.07;;;;;;;2.99;77.66;101011.06;7394955;19;20070;-66
2023/04/26 05:58:54;;;;;;;17.23;3.72;;;;;;;3.03;77.37;101024.09;7395968;19;20026;-67
2023/04/26 06:01:23;;;;;;;10.48;3.60;;;;;;;3.07;77.49;101025.88;7393977;19;20113;-66
2023/04/26 06:03:51;;;;;;;11.10;3.70;;;;;;;3.13;76.90;101013.84;7394363;19;20032;-68
2023/04/26 06:06:20;;;;;;;11.77;3.60;;;;;;;3.18;77.16;101004.41;7393409;19;20031;-68
2023/04/26 06:08:48;;;;;;;11.60;3.80;;;;;;;3.24;77.00;101010.53;7393350;19;20023;-67
2023/04/26 06:11:17;;;;;;;13.32;4.00;;;;;;;3.30;76.84;101012.34;7394879;19;20014;-67
2023/04/26 06:13:48;;;;;;;14.55;4.07;;;;;;;3.35;76.69;101012.38;7394886;19;20026;-67
2023/04/26 06:16:16;;;;;;;14.32;3.85;;;;;;;3.38;76.62;101009.84;7394719;19;20018;-68
2023/04/26 06:18:45;;;;;;;10.20;3.97;;;;;;;3.43;76.35;101009.03;7393611;19;20014;-69
2023/04/26 06:21:13;;;;;;;21.83;6.53;;;;;;;3.49;76.12;101013.44;7395167;19;20022;-69
2023/04/26 06:23:42;;;;;;;10.25;3.53;;;;;;;3.56;75.80;101014.38;7394330;19;20023;-68
2023/04/26 06:26:10;;;;;;;11.90;3.67;;;;;;;3.63;75.68;101012.69;7395238;19;20022;-68
2023/04/26 06:28:39;;;;;;;15.68;3.58;;;;;;;3.68;75.25;101001.53;7394950;19;20481;-66
2023/04/26 06:31:10;;;;;;;11.52;4.18;;;;;;;3.73;75.38;101001.59;7394784;19;20078;-66
2023/04/26 06:33:38;;;;;;;12.27;3.55;;;;;;;3.80;75.10;101008.56;7393523;19;20022;-67
2023/04/26 06:36:08;;;;;;;8.07;2.97;;;;;;;3.86;74.79;101007.78;7392543;19;20400;-66
2023/04/26 06:38:43;;;;;;;11.88;3.22;;;;;;;3.91;74.33;101016.47;7394300;19;20500;-66
2023/04/26 06:41:11;;;;;;;9.02;3.22;;;;;;;3.94;73.49;101019.09;7392998;19;20029;-67
2023/04/26 06:43:40;;;;;;;9.50;2.97;;;;;;;3.99;73.90;101009.63;7392938;19;20031;-67
2023/04/26 06:46:11;;;;;;;10.63;3.38;;;;;;;4.04;73.58;101020.06;7394843;19;20019;-67
2023/04/26 06:48:40;;;;;;;9.10;2.90;;;;;;;4.11;73.63;101010.59;7394732;19;20011;-66
2023/04/26 06:51:09;;;;;;;14.25;3.38;;;;;;;4.17;73.18;101010.66;7394760;19;20022;-66
2023/04/26 06:53:37;;;;;;;9.90;3.05;;;;;;;4.23;73.37;101028.88;7392953;19;20482;-67
2023/04/26 06:56:14;;;;;;;14.75;3.03;;;;;;;4.32;73.02;101016.00;7390621;19;20024;-66
2023/04/26 06:59:01;;;;;;;8.07;2.72;;;;;;;4.40;72.01;101008.25;7391455;19;20014;-67
2023/04/26 07:01:33;;;;;;;9.75;2.95;;;;;;;4.48;72.17;101016.13;7394427;19;20034;-67
2023/04/26 07:04:01;;;;;;;18.08;3.75;;;;;;;4.55;72.25;101018.78;7392334;19;20454;-67
2023/04/26 07:06:30;;;;;;;10.52;2.80;;;;;;;4.63;71.26;101034.41;7393735;19;20482;-67
2023/04/26 07:09:01;;;;;;;13.50;2.90;;;;;;;4.70;71.04;101024.91;7393760;19;20086;-67
2023/04/26 07:11:30;;;;;;;7.63;2.60;;;;;;;4.76;70.68;101031.91;7394439;19;20082;-67
2023/04/26 07:13:59;;;;;;;12.68;3.80;;;;;;;4.82;70.40;101016.34;7392095;19;20397;-66
2023/04/26 07:16:28;;;;;;;7.50;2.42;;;;;;;4.88;70.01;101024.19;7391951;19;20094;-67
2023/04/26 07:18:59;;;;;;;7.93;2.42;;;;;;;4.92;69.26;101027.69;7393846;19;20019;-66
2023/04/26 07:21:28;;;;;;;8.13;2.40;;;;;;;5.00;69.71;101021.66;7393529;19;20377;-66
2023/04/26 07:23:57;;;;;;;10.40;2.45;;;;;;;5.05;69.66;101022.56;7392239;19;20023;-67
2023/04/26 07:26:26;;;;;;;8.48;3.28;;;;;;;5.10;69.09;101039.91;7393205;19;20489;-68
2023/04/26 07:28:55;;;;;;;10.15;2.42;;;;;;;5.12;68.53;101032.97;7391332;19;20485;-66
2023/04/26 07:31:24;;;;;;;10.32;3.13;;;;;;;5.18;69.07;101022.59;7392414;19;20027;-66
2023/04/26 07:33:52;;;;;;;11.70;2.58;;;;;;;5.25;68.23;101024.38;7391873;19;20015;-67
2023/04/26 07:36:23;;;;;;;7.10;2.30;;;;;;;5.31;66.75;101032.22;7392029;19;20103;-67
2023/04/26 07:38:52;;;;;;;9.85;2.63;;;;;;;5.36;66.92;101035.72;7393821;19;20035;-67
2023/04/26 07:41:20;;;;;;;8.02;2.50;;;;;;;5.43;66.97;101027.94;7391408;19;20078;-67
2023/04/26 07:43:49;;;;;;;9.98;2.45;;;;;;;5.50;67.03;101025.34;7391415;19;20428;-67
2023/04/26 07:46:17;;;;;;;7.78;2.40;;;;;;;5.56;67.16;101014.13;7391584;19;20377;-65
2023/04/26 07:48:46;;;;;;;9.23;2.08;;;;;;;5.65;64.98;101019.34;7398170;19;20023;-68
2023/04/26 07:51:15;;;;;;;9.38;2.05;;;;;;;5.73;66.17;101028.91;7400159;19;20023;-67
2023/04/26 07:53:46;;;;;;;8.20;2.17;;;;;;;5.76;63.99;101036.72;7398400;19;20022;-66
2023/04/26 07:56:15;;;;;;;8.60;2.13;;;;;;;5.83;64.11;101033.28;7397681;19;20038;-66
2023/04/26 07:58:43;;;;;;;7.20;2.30;;;;;;;5.87;63.93;101038.47;7401175;19;20027;-67
2023/04/26 08:01:12;;;;;;;8.80;1.92;;;;;;;5.94;64.42;101031.56;7399800;19;20023;-67
2023/04/26 08:03:40;;;;;;;9.52;2.28;;;;;;;5.97;63.65;101031.56;7396530;19;20026;-66
2023/04/26 08:06:10;;;;;;;9.07;2.72;;;;;;;6.02;63.97;101034.22;7396350;19;20516;-65
2023/04/26 08:08:43;;;;;;;7.82;2.03;;;;;;;6.09;62.56;101030.75;7398639;19;20014;-66
2023/04/26 08:11:14;;;;;;;12.88;1.88;;;;;;;6.17;60.98;101026.41;7399639;19;20022;-66
2023/04/26 08:13:43;;;;;;;8.15;1.52;;;;;;;6.25;59.68;101057.69;7397687;19;20433;-65
2023/04/26 08:16:11;;;;;;;11.27;2.17;;;;;;;6.28;61.61;101039.47;7397450;19;20031;-66
2023/04/26 08:18:40;;;;;;;6.32;2.03;;;;;;;6.30;61.95;101040.31;7398373;19;20510;-66
2023/04/26 08:21:08;;;;;;;10.75;1.88;;;;;;;6.35;60.62;101043.78;7399379;19;20018;-66
2023/04/26 08:23:37;;;;;;;5.65;1.15;;;;;;;6.42;58.16;101049.88;7397853;19;20039;-66
2023/04/26 08:26:06;;;;;;;4.68;1.42;;;;;;;6.48;60.05;101039.47;7398326;19;20359;-66
2023/04/26 08:28:37;;;;;;;9.32;2.55;;;;;;;6.50;58.73;101062.91;7398368;19;20014;-66
2023/04/26 08:31:05;;;;;;;5.32;1.70;;;;;;;6.55;56.69;101042.94;7396127;19;20015;-66
2023/04/26 08:33:34;;;;;;;10.82;3.58;;;;;;;6.61;57.03;101035.13;7397158;19;20093;-65
2023/04/26 08:36:02;;;;;;;7.28;1.70;;;;;;;6.66;55.43;101043.78;7397697;19;20037;-66
2023/04/26 08:38:31;;;;;;;9.07;1.95;;;;;;;6.71;53.77;101035.09;7398062;19;20382;-66
2023/04/26 08:41:03;;;;;;;6.40;1.00;;;;;;;6.73;53.63;101043.78;7396093;19;20018;-67
2023/04/26 08:43:31;;;;;;;5.18;1.35;;;;;;;6.76;54.15;101030.75;7396555;19;20021;-66
2023/04/26 08:46:03;;;;;;;9.52;2.00;;;;;;;6.83;54.47;101022.03;7395735;19;20078;-66
2023/04/26 08:48:36;;;;;;;4.25;1.20;;;;;;;6.91;54.37;101030.72;7397878;19;20419;-66
2023/04/26 08:51:05;;;;;;;7.35;1.35;;;;;;;6.98;55.21;101027.22;7395795;19;20490;-67
2023/04/26 08:53:37;;;;;;;7.13;2.22;;;;;;;7.06;54.45;101036.78;7395150;19;20439;-66
2023/04/26 08:56:14;;;;;;;5.32;1.60;;;;;;;7.16;54.08;101021.06;7395505;19;20014;-66
2023/04/26 08:58:49;;;;;;;6.03;1.25;;;;;;;7.21;51.74;101030.66;7394955;19;20011;-67
2023/04/26 09:01:22;;;;;;;2.67;1.02;;;;;;;7.16;51.32;101023.69;7397431;19;20042;-66
2023/04/26 09:03:51;;;;;;;7.60;1.97;;;;;;;7.13;51.05;101039.38;7395328;19;20074;-66
2023/04/26 09:06:21;;;;;;;4.10;1.08;;;;;;;7.12;50.76;101021.09;7397004;19;20015;-68
2023/04/26 09:08:50;;;;;;;4.25;1.20;;;;;;;7.09;51.51;101023.72;7396841;19;20038;-67
2023/04/26 09:11:19;;;;;;;4.80;1.35;;;;;;;7.16;52.21;101020.22;7396775;19;20498;-67
2023/04/26 09:13:47;;;;;;;2.53;1.13;;;;;;;7.30;52.57;101028.88;7395914;19;20022;-67
2023/04/26 09:16:16;;;;;;;6.70;1.10;;;;;;;7.47;52.52;101023.59;7395866;19;20018;-67
2023/04/26 09:18:56;;;;;;;6.95;1.95;;;;;;;7.58;49.88;101040.94;7396681;19;20384;-67
2023/04/26 09:21:24;;;;;;;4.55;1.40;;;;;;;7.67;51.37;101030.44;7394557;19;20015;-68
2023/04/26 09:24:02;;;;;;;4.88;1.52;;;;;;;7.65;49.90;101033.06;7395577;19;20037;-67
2023/04/26 09:26:30;;;;;;;5.43;1.23;;;;;;;7.71;50.74;101026.97;7396660;19;20364;-67
2023/04/26 09:29:15;;;;;;;4.35;1.30;;;;;;;7.64;48.34;101036.53;7396378;19;20075;-67
2023/04/26 09:31:45;;;;;;;;;;;;;;;7.54;48.36;101040.06;7397590;19;20015;-67
2023/04/26 09:34:16;;;;;;;4.70;1.10;;;;;;;7.55;49.21;101031.38;7393964;19;19939;-68
2023/04/26 09:36:49;;;;;;;4.68;1.45;;;;;;;7.58;51.58;101035.72;7394545;19;20506;-67
2023/04/26 09:39:32;;;;;;;5.95;1.05;;;;;;;7.63;52.20;101019.16;7393830;19;20015;-67
2023/04/26 09:42:01;;;;;;;4.55;2.00;;;;;;;7.72;52.64;101009.53;7394511;19;20025;-67
2023/04/26 09:44:31;;;;;;;5.97;1.45;;;;;;;7.83;52.81;101023.41;7394256;19;20010;-66
2023/04/26 09:47:01;;;;;;;3.28;1.40;;;;;;;7.89;52.79;101028.59;7395537;19;20015;-66
2023/04/26 09:49:34;;;;;;;5.60;1.30;;;;;;;7.88;51.93;101034.69;7395594;19;20024;-67
2023/04/26 09:52:05;;;;;;;7.13;2.10;;;;;;;7.82;52.81;101038.22;7397994;19;20489;-67
2023/04/26 09:54:44;;;;;;;6.38;1.23;;;;;;;7.74;54.44;101042.59;7394404;19;20022;-67
2023/04/26 09:57:14;;;;;;;6.55;1.55;;;;;;;7.69;54.78;101049.59;7394212;19;20078;-68
2023/04/26 09:59:47;;;;;;;7.10;3.08;;;;;;;7.68;54.76;101053.06;7396226;19;20035;-67
2023/04/26 10:02:19;;;;;;;5.90;2.63;;;;;;;7.68;54.65;101047.00;7396585;19;20019;-67
2023/04/26 10:04:52;;;;;;;5.68;1.63;;;;;;;7.66;54.03;101052.22;7396040;19;20017;-68
2023/04/26 10:07:22;;;;;;;3.30;1.10;;;;;;;7.70;52.75;101048.72;7396652;19;20371;-68
2023/04/26 10:09:51;;;;;;;4.47;1.33;;;;;;;7.75;52.79;101059.16;7394770;19;20018;-68
2023/04/26 10:12:21;;;;;;;6.50;1.38;;;;;;;7.75;50.14;101053.94;7395804;19;20015;-67
2023/04/26 10:14:50;;;;;;;7.28;1.70;;;;;;;7.76;51.60;101060.88;7393424;19;20036;-67
2023/04/26 10:17:20;;;;;;;4.07;1.30;;;;;;;7.71;51.07;101046.97;7393446;19;20019;-68
2023/04/26 10:19:56;;;;;;;8.23;1.77;;;;;;;7.77;51.11;101050.44;7393774;19;20039;-67
2023/04/26 10:22:27;;;;;;;4.90;1.38;;;;;;;7.82;51.80;101045.16;7394250;19;20023;-67
2023/04/26 10:24:56;;;;;;;5.05;1.38;;;;;;;7.86;51.57;101051.25;7393073;19;20018;-66
2023/04/26 10:27:49;;;;;;;6.65;1.38;;;;;;;7.90;49.86;101053.84;7394235;19;20018;-66
2023/04/26 10:30:19;;;;;;;5.22;1.88;;;;;;;7.98;49.71;101057.25;7394426;19;20018;-67
2023/04/26 10:33:18;;;;;;;5.07;1.42;;;;;;;8.03;49.79;101059.00;7392882;19;20014;-68
2023/04/26 10:36:19;;;;;;;7.32;1.70;;;;;;;8.12;49.23;101058.94;7392710;19;20015;-67
2023/04/26 10:39:18;;;;;;;5.57;1.20;;;;;;;8.19;49.48;101052.78;7394800;19;20384;-66
2023/04/26 10:41:46;;;;;;;4.25;1.30;;;;;;;8.26;50.30;101046.63;7395013;19;20019;-67
2023/04/26 10:44:40;;;;;;;5.82;1.75;;;;;;;8.28;48.63;101049.25;7392683;19;20045;-67
2023/04/26 10:47:22;;;;;;;5.47;1.40;;;;;;;8.22;49.96;101047.53;7393902;19;20014;-68
2023/04/26 10:49:52;;;;;;;6.43;1.13;;;;;;;8.25;50.35;101047.53;7393593;19;20497;-68
2023/04/26 10:52:23;;;;;;;5.40;1.30;;;;;;;8.22;50.02;101042.31;7393826;19;20503;-67
2023/04/26 10:54:56;;;;;;;4.50;1.35;;;;;;;8.32;49.98;101061.41;7395090;19;20014;-68
2023/04/26 10:57:46;;;;;;;3.33;1.30;;;;;;;8.36;50.43;101046.56;7392059;19;20486;-68
2023/04/26 11:00:31;;;;;;;4.40;1.20;;;;;;;8.45;49.00;101046.50;7394426;19;20481;-69
2023/04/26 11:03:13;;;;;;;5.75;1.40;;;;;;;8.53;48.42;101044.72;7393538;19;20045;-68
2023/04/26 11:05:55;;;;;;;4.70;1.58;;;;;;;8.60;48.30;101045.53;7393438;19;20018;-68
2023/04/26 11:08:31;;;;;;;5.47;1.52;;;;;;;8.70;49.09;101035.88;7393228;19;20482;-68
2023/04/26 11:11:09;;;;;;;4.53;1.42;;;;;;;8.84;49.74;101033.13;7394299;19;20024;-68
2023/04/26 11:13:39;;;;;;;5.90;1.45;;;;;;;9.03;46.43;101033.78;7392726;19;20026;-68
2023/04/26 11:16:10;;;;;;;3.78;1.20;;;;;;;9.20;45.01;101026.63;7391393;19;20027;-68
2023/04/26 11:18:40;;;;;;;3.67;1.15;;;;;;;9.36;46.47;101039.53;7392223;19;20439;-68
2023/04/26 11:21:09;;;;;;;5.93;1.52;;;;;;;9.42;45.01;101029.84;7394180;19;20015;-67
2023/04/26 11:23:40;;;;;;;4.32;1.58;;;;;;;9.36;44.39;101039.53;7398336;19;20408;-66
2023/04/26 11:26:10;;;;;;;6.47;1.85;;;;;;;9.20;45.55;101031.84;7397391;19;20015;-70
2023/04/26 11:28:40;;;;;;;2.65;1.38;;;;;;;9.06;45.62;101054.69;7397232;19;20011;-69
2023/04/26 11:31:09;;;;;;;4.30;1.85;;;;;;;8.94;46.57;101045.22;7401107;19;20032;-69
2023/04/26 11:33:37;;;;;;;11.30;2.58;;;;;;;8.80;48.03;101064.53;7399055;19;20556;-69
2023/04/26 11:36:06;;;;;;;8.07;1.85;;;;;;;8.65;49.42;101064.66;7399270;19;20474;-67
2023/04/26 11:38:35;;;;;;;3.72;2.00;;;;;;;8.50;51.29;101062.19;7400289;19;20035;-69
2023/04/26 11:41:06;;;;;;;7.07;2.28;;;;;;;8.37;50.73;101050.94;7397825;19;20070;-68
2023/04/26 11:43:39;;;;;;;7.55;2.00;;;;;;;8.29;51.23;101048.34;7397673;19;20018;-70
2023/04/26 11:46:09;;;;;;;4.80;1.80;;;;;;;8.31;51.21;101052.72;7400117;19;20022;-67